createdAt,value
2018-10-02T00:02:25.220Z,101095.73
2018-10-02T00:04:52.995Z,101100.69
2018-10-02T00:07:20.776Z,101100.94
2018-10-02T00:09:48.515Z,101102.88
2018-10-02T00:12:22.090Z,101098.52
2018-10-02T00:14:49.823Z,101102.44
2018-10-02T00:17:17.533Z,101104.21
2018-10-02T00:19:45.302Z,101100.88
2018-10-02T00:22:13.065Z,101104.27
2018-10-02T00:24:43.589Z,101098.65
2018-10-02T00:27:11.337Z,101103.57
2018-10-02T00:29:39.098Z,101097.68
2018-10-02T00:32:07.023Z,101102.22
2018-10-02T00:34:34.638Z,101103.00
2018-10-02T00:37:02.382Z,101099.44
2018-10-02T00:39:30.141Z,101101.95
2018-10-02T00:41:57.867Z,101097.36
2018-10-02T00:44:25.597Z,101097.56
2018-10-02T00:46:53.375Z,101090.57
2018-10-02T00:49:21.174Z,101081.58
2018-10-02T00:51:48.889Z,101084.50
2018-10-02T00:54:16.628Z,101089.41
2018-10-02T00:56:44.363Z,101085.39
2018-10-02T00:59:12.123Z,101088.37
2018-10-02T01:01:39.870Z,101087.86
2018-10-02T01:04:07.587Z,101097.16
2018-10-02T01:06:35.349Z,101089.92
2018-10-02T01:09:05.176Z,101085.39
2018-10-02T01:11:32.928Z,101087.98
2018-10-02T01:14:00.739Z,101091.86
2018-10-02T01:16:28.515Z,101093.30
2018-10-02T01:18:56.287Z,101087.55
2018-10-02T01:21:23.995Z,101087.13
2018-10-02T01:23:51.743Z,101083.34
2018-10-02T01:26:19.506Z,101088.66
2018-10-02T01:28:47.203Z,101083.71
2018-10-02T01:31:15.047Z,101083.55
2018-10-02T01:33:42.789Z,101079.09
2018-10-02T01:36:10.535Z,101079.92
2018-10-02T01:38:38.556Z,101087.16
2018-10-02T01:41:06.329Z,101082.66
2018-10-02T01:43:34.072Z,101075.66
2018-10-02T01:46:02.102Z,101076.43
2018-10-02T01:48:29.882Z,101074.64
2018-10-02T01:50:57.823Z,101076.91
2018-10-02T01:53:25.540Z,101071.25
2018-10-02T01:55:53.299Z,101074.12
2018-10-02T01:58:21.022Z,101073.87
2018-10-02T02:00:48.812Z,101077.59
2018-10-02T02:03:16.567Z,101076.36
2018-10-02T02:05:44.341Z,101065.35
2018-10-02T02:08:12.159Z,101067.11
2018-10-02T02:10:40.011Z,101071.94
2018-10-02T02:13:07.730Z,101070.29
2018-10-02T02:15:35.575Z,101077.16
2018-10-02T02:18:04.512Z,101078.41
2018-10-02T02:20:32.450Z,101085.02
2018-10-02T02:23:00.270Z,101088.45
2018-10-02T02:25:28.088Z,101094.80
2018-10-02T02:27:55.952Z,101086.73
2018-10-02T02:30:23.810Z,101093.92
2018-10-02T02:32:51.606Z,101092.48
2018-10-02T02:35:19.418Z,101092.44
2018-10-02T02:37:47.195Z,101093.52
2018-10-02T02:40:15.191Z,101090.20
2018-10-02T02:42:43.023Z,101092.27
2018-10-02T02:45:10.768Z,101087.48
2018-10-02T02:47:44.251Z,101090.72
2018-10-02T02:50:17.663Z,101079.59
2018-10-02T02:52:49.764Z,101080.50
2018-10-02T02:55:17.654Z,101075.84
2018-10-02T02:57:45.481Z,101083.86
2018-10-02T03:00:13.343Z,101085.48
2018-10-02T03:02:41.175Z,101078.66
2018-10-02T03:05:09.039Z,101085.44
2018-10-02T03:07:36.849Z,101083.56
2018-10-02T03:10:04.755Z,101079.02
2018-10-02T03:12:32.558Z,101077.86
2018-10-02T03:15:00.304Z,101077.27
2018-10-02T03:17:28.041Z,101080.14
2018-10-02T03:19:55.903Z,101087.16
2018-10-02T03:22:23.655Z,101087.16
2018-10-02T03:24:51.411Z,101088.77
2018-10-02T03:27:19.218Z,101077.72
2018-10-02T03:29:46.998Z,101075.40
2018-10-02T03:32:14.815Z,101075.92
2018-10-02T03:34:42.543Z,101079.47
2018-10-02T03:37:10.322Z,101078.36
2018-10-02T03:39:38.135Z,101076.08
2018-10-02T03:42:05.973Z,101075.17
2018-10-02T03:44:33.751Z,101072.34
2018-10-02T03:47:01.612Z,101077.37
2018-10-02T03:49:29.373Z,101079.59
2018-10-02T03:51:57.159Z,101074.73
2018-10-02T03:54:26.518Z,101081.03
2018-10-02T03:56:54.287Z,101077.80
2018-10-02T03:59:22.111Z,101063.55
2018-10-02T04:01:49.871Z,101055.61
2018-10-02T04:04:17.739Z,101058.33
2018-10-02T04:06:45.482Z,101055.22
2018-10-02T04:09:13.359Z,101055.22
2018-10-02T04:11:41.112Z,101059.92
2018-10-02T04:14:08.927Z,101054.37
2018-10-02T04:16:40.599Z,101058.65
2018-10-02T04:19:08.541Z,101064.20
2018-10-02T04:21:37.002Z,101065.03
2018-10-02T04:24:06.804Z,101049.98
2018-10-02T04:26:35.482Z,101038.17
2018-10-02T04:29:03.939Z,101045.39
2018-10-02T04:31:33.093Z,101044.23
2018-10-02T04:34:00.937Z,101048.13
2018-10-02T04:36:28.739Z,101052.16
2018-10-02T04:38:56.581Z,101052.02
2018-10-02T04:41:24.477Z,101050.27
2018-10-02T04:43:52.551Z,101052.98
2018-10-02T04:46:20.315Z,101048.64
2018-10-02T04:48:48.274Z,101045.30
2018-10-02T04:51:16.095Z,101045.62
2018-10-02T04:53:43.834Z,101051.84
2018-10-02T04:56:12.019Z,101050.11
2018-10-02T04:58:43.229Z,101049.02
2018-10-02T05:01:11.035Z,101055.02
2018-10-02T05:03:39.636Z,101048.03
2018-10-02T05:06:07.527Z,101055.28
2018-10-02T05:08:35.465Z,101050.43
2018-10-02T05:11:03.261Z,101053.84
2018-10-02T05:13:31.091Z,101056.97
2018-10-02T05:15:58.917Z,101050.55
2018-10-02T05:18:27.011Z,101048.47
2018-10-02T05:20:55.292Z,101043.44
2018-10-02T05:23:23.231Z,101042.81
2018-10-02T05:25:51.261Z,101046.94
2018-10-02T05:28:19.212Z,101048.30
2018-10-02T05:30:47.354Z,101057.71
2018-10-02T05:33:15.223Z,101056.73
2018-10-02T05:35:43.023Z,101065.55
2018-10-02T05:38:10.865Z,101054.59
2018-10-02T05:40:39.080Z,101057.63
2018-10-02T05:43:07.147Z,101056.78
2018-10-02T05:45:34.997Z,101050.45
2018-10-02T05:48:02.856Z,101053.69
2018-10-02T05:50:31.166Z,101050.50
2018-10-02T05:52:59.090Z,101050.77
2018-10-02T05:55:26.915Z,101055.21
2018-10-02T05:57:54.789Z,101057.41
2018-10-02T06:00:22.588Z,101058.13
2018-10-02T06:02:50.619Z,101062.95
2018-10-02T06:05:18.467Z,101062.16
2018-10-02T06:07:46.347Z,101052.44
2018-10-02T06:10:14.124Z,101044.59
2018-10-02T06:12:41.868Z,101031.56
2018-10-02T06:15:09.648Z,101015.02
2018-10-02T06:17:37.479Z,101025.12
2018-10-02T06:20:05.283Z,101026.59
2018-10-02T06:22:33.117Z,101031.43
2018-10-02T06:25:00.908Z,101040.91
2018-10-02T06:27:28.758Z,101047.43
2018-10-02T06:29:56.463Z,101045.05
2018-10-02T06:32:24.287Z,101036.56
2018-10-02T06:34:52.077Z,101043.00
2018-10-02T06:37:19.899Z,101052.55
2018-10-02T06:39:47.740Z,101058.64
2018-10-02T06:42:15.577Z,101056.25
2018-10-02T06:44:43.467Z,101053.76
2018-10-02T06:47:11.191Z,101058.92
2018-10-02T06:49:39.063Z,101064.37
2018-10-02T06:52:07.091Z,101064.09
2018-10-02T06:54:34.695Z,101073.95
2018-10-02T06:57:02.558Z,101067.02
2018-10-02T06:59:30.363Z,101067.86
2018-10-02T07:01:58.212Z,101066.19
2018-10-02T07:04:26.011Z,101068.69
2018-10-02T07:06:53.904Z,101066.84
2018-10-02T07:09:21.556Z,101066.71
2018-10-02T07:11:49.341Z,101069.75
2018-10-02T07:14:17.088Z,101069.03
2018-10-02T07:16:44.921Z,101064.23
2018-10-02T07:19:12.707Z,101069.69
2018-10-02T07:21:40.496Z,101064.77
2018-10-02T07:24:08.344Z,101062.12
2018-10-02T07:26:36.242Z,101062.56
2018-10-02T07:29:04.009Z,101055.62
2018-10-02T07:31:31.943Z,101058.56
2018-10-02T07:36:27.624Z,101057.51
2018-10-02T07:38:55.429Z,101053.73
2018-10-02T07:41:23.165Z,101056.78
2018-10-02T07:43:50.940Z,101063.48
2018-10-02T07:46:18.763Z,101066.20
2018-10-02T07:48:46.643Z,101067.48
2018-10-02T07:51:14.474Z,101062.86
2018-10-02T07:53:42.342Z,101063.38
2018-10-02T07:56:10.171Z,101061.25
2018-10-02T07:58:37.963Z,101068.50
2018-10-02T08:01:05.768Z,101080.95
2018-10-02T08:03:33.601Z,101076.84
2018-10-02T08:06:01.453Z,101082.09
2018-10-02T08:08:29.256Z,101083.69
2018-10-02T08:10:57.007Z,101085.50
2018-10-02T08:13:24.914Z,101082.66
2018-10-02T08:15:53.155Z,101085.51
2018-10-02T08:18:20.928Z,101088.02
2018-10-02T08:20:48.852Z,101082.05
2018-10-02T08:23:16.651Z,101083.10
2018-10-02T08:25:46.591Z,101072.81
2018-10-02T08:28:14.755Z,101070.52
2018-10-02T08:30:42.568Z,101078.39
2018-10-02T08:33:10.624Z,101079.41
2018-10-02T08:35:38.287Z,101082.67
2018-10-02T08:38:06.201Z,101085.91
2018-10-02T08:40:33.990Z,101085.17
2018-10-02T08:43:01.804Z,101079.59
2018-10-02T08:45:29.550Z,101082.02
2018-10-02T08:47:57.470Z,101082.23
2018-10-02T08:50:25.254Z,101075.64
2018-10-02T08:52:53.120Z,101074.89
2018-10-02T08:55:20.971Z,101077.20
2018-10-02T08:57:48.783Z,101076.69
2018-10-02T09:00:16.568Z,101063.77
2018-10-02T09:02:44.327Z,101057.70
2018-10-02T09:05:12.235Z,101048.59
2018-10-02T09:07:40.089Z,101035.61
2018-10-02T09:10:07.929Z,101028.65
2018-10-02T09:12:35.762Z,101035.69
2018-10-02T09:15:04.064Z,101042.28
2018-10-02T09:17:31.866Z,101036.43
2018-10-02T09:20:02.312Z,101030.37
2018-10-02T09:22:30.160Z,101031.39
2018-10-02T09:24:57.938Z,101033.41
2018-10-02T09:27:25.761Z,101038.53
2018-10-02T09:29:59.404Z,101042.71
2018-10-02T09:32:33.116Z,101045.12
2018-10-02T09:36:07.453Z,101044.20
2018-10-02T09:38:40.939Z,101040.84
2018-10-02T09:41:14.497Z,101039.48
2018-10-02T09:43:53.127Z,101031.73
2018-10-02T09:46:21.583Z,101034.47
2018-10-02T09:48:49.639Z,101032.66
2018-10-02T09:51:17.507Z,101026.68
2018-10-02T09:53:45.352Z,101035.69
2018-10-02T09:56:13.177Z,101041.79
2018-10-02T09:58:41.004Z,101040.30
2018-10-02T10:01:14.519Z,101032.54
2018-10-02T10:03:42.379Z,101033.47
2018-10-02T10:06:10.333Z,101029.15
2018-10-02T10:08:38.126Z,101020.58
2018-10-02T10:11:06.844Z,101015.53
2018-10-02T10:13:35.089Z,101016.37
2018-10-02T10:16:03.808Z,101005.47
2018-10-02T10:18:31.623Z,100996.05
2018-10-02T10:20:59.459Z,100998.34
2018-10-02T10:23:28.865Z,100993.01
2018-10-02T10:25:56.915Z,101000.20
2018-10-02T10:28:24.725Z,100997.91
2018-10-02T10:30:52.559Z,100991.49
2018-10-02T10:33:20.500Z,100980.68
2018-10-02T10:35:48.260Z,100972.89
2018-10-02T10:38:16.137Z,100969.85
2018-10-02T10:40:44.090Z,100971.95
2018-10-02T10:43:11.739Z,100972.86
2018-10-02T10:45:39.568Z,100970.44
2018-10-02T10:48:07.431Z,100977.45
2018-10-02T10:50:35.211Z,100977.98
2018-10-02T10:53:03.013Z,100971.50
2018-10-02T10:55:34.079Z,100968.99
2018-10-02T10:58:01.884Z,100970.66
2018-10-02T11:00:29.800Z,100967.73
2018-10-02T11:02:57.617Z,100961.14
2018-10-02T11:05:25.423Z,100954.77
2018-10-02T11:07:53.238Z,100956.31
2018-10-02T11:10:21.020Z,100947.42
2018-10-02T11:12:48.963Z,100946.97
2018-10-02T11:15:17.804Z,100954.73
2018-10-02T11:17:45.608Z,100940.56
2018-10-02T11:20:15.997Z,100945.52
2018-10-02T11:22:43.832Z,100934.08
2018-10-02T11:25:11.677Z,100933.63
2018-10-02T11:27:39.436Z,100927.66
2018-10-02T11:30:07.913Z,100932.58
2018-10-02T11:32:35.764Z,100923.37
2018-10-02T11:35:03.704Z,100919.58
2018-10-02T11:37:31.499Z,100925.03
2018-10-02T11:39:59.320Z,100925.67
2018-10-02T11:42:27.134Z,100916.05
2018-10-02T11:44:55.146Z,100922.22
2018-10-02T11:47:22.763Z,100920.02
2018-10-02T11:49:50.681Z,100928.84
2018-10-02T11:52:18.394Z,100922.61
2018-10-02T11:54:46.157Z,100928.79
2018-10-02T11:57:14.001Z,100922.41
2018-10-02T11:59:41.897Z,100926.34
2018-10-02T12:02:09.838Z,100924.81
2018-10-02T12:04:37.671Z,100920.27
2018-10-02T12:07:05.471Z,100923.66
2018-10-02T12:09:33.264Z,100929.98
2018-10-02T12:12:01.177Z,100924.83
2018-10-02T12:14:29.379Z,100917.81
2018-10-02T12:16:57.028Z,100918.13
2018-10-02T12:19:24.931Z,100918.87
2018-10-02T12:21:52.670Z,100918.34
2018-10-02T12:24:20.417Z,100922.67
2018-10-02T12:26:48.195Z,100915.42
2018-10-02T12:29:16.106Z,100905.48
2018-10-02T12:31:43.956Z,100912.61
2018-10-02T12:34:11.836Z,100916.41
2018-10-02T12:36:39.680Z,100916.29
2018-10-02T12:39:08.060Z,100918.80
2018-10-02T12:41:35.936Z,100907.28
2018-10-02T12:44:03.894Z,100907.50
2018-10-02T12:46:31.661Z,100899.85
2018-10-02T12:48:59.399Z,100898.57
2018-10-02T12:51:27.289Z,100902.88
2018-10-02T12:53:55.081Z,100894.79
2018-10-02T12:56:22.891Z,100906.66
2018-10-02T12:58:50.759Z,100906.66
2018-10-02T13:01:18.625Z,100898.98
2018-10-02T13:03:46.476Z,100893.75
2018-10-02T13:06:14.255Z,100892.28
2018-10-02T13:08:42.023Z,100886.42
2018-10-02T13:11:09.860Z,100887.56
2018-10-02T13:13:37.722Z,100876.12
2018-10-02T13:16:05.536Z,100873.99
2018-10-02T13:18:37.373Z,100879.03
2018-10-02T13:21:05.359Z,100878.28
2018-10-02T13:23:33.098Z,100881.34
2018-10-02T13:26:00.873Z,100876.61
2018-10-02T13:28:28.774Z,100882.78
2018-10-02T13:30:56.553Z,100877.30
2018-10-02T13:33:24.399Z,100881.73
2018-10-02T13:35:52.311Z,100869.38
2018-10-02T13:38:20.265Z,100871.80
2018-10-02T13:40:48.033Z,100871.48
2018-10-02T13:43:15.943Z,100866.03
2018-10-02T13:45:43.713Z,100851.57
2018-10-02T13:48:11.735Z,100854.52
2018-10-02T13:50:39.821Z,100849.98
2018-10-02T13:53:08.581Z,100845.59
2018-10-02T13:55:36.614Z,100845.89
2018-10-02T13:58:04.604Z,100840.75
2018-10-02T14:00:32.522Z,100838.22
2018-10-02T14:03:00.824Z,100842.30
2018-10-02T14:05:28.680Z,100829.12
2018-10-02T14:07:56.488Z,100834.95
2018-10-02T14:10:24.270Z,100830.56
2018-10-02T14:12:52.232Z,100832.15
2018-10-02T14:15:20.149Z,100837.80
2018-10-02T14:17:48.010Z,100834.20
2018-10-02T14:20:15.816Z,100840.69
2018-10-02T14:22:43.631Z,100843.72
2018-10-02T14:25:11.596Z,100844.55
2018-10-02T14:27:39.553Z,100846.55
2018-10-02T14:30:07.448Z,100836.82
2018-10-02T14:32:35.304Z,100832.28
2018-10-02T14:35:03.198Z,100839.73
2018-10-02T14:37:31.072Z,100844.77
2018-10-02T14:39:59.473Z,100839.24
2018-10-02T14:42:27.307Z,100830.75
2018-10-02T14:44:55.587Z,100828.33
2018-10-02T14:47:23.416Z,100823.71
2018-10-02T14:49:51.284Z,100816.06
2018-10-02T14:52:19.075Z,100815.95
2018-10-02T14:54:46.868Z,100838.27
2018-10-02T14:57:14.751Z,100832.50
2018-10-02T14:59:42.547Z,100823.67
2018-10-02T15:02:10.539Z,100825.27
2018-10-02T15:04:38.442Z,100830.27
2018-10-02T15:07:10.004Z,100824.32
2018-10-02T15:09:38.063Z,100832.81
2018-10-02T15:12:06.040Z,100821.90
2018-10-02T15:14:33.932Z,100817.73
2018-10-02T15:17:01.846Z,100822.66
2018-10-02T15:19:29.692Z,100826.30
2018-10-02T15:21:57.694Z,100822.20
2018-10-02T15:24:27.911Z,100823.91
2018-10-02T15:26:56.481Z,100823.27
2018-10-02T15:29:24.476Z,100816.45
2018-10-02T15:31:52.321Z,100819.81
2018-10-02T15:34:20.104Z,100816.86
2018-10-02T15:36:47.948Z,100819.05
2018-10-02T15:39:15.807Z,100816.02
2018-10-02T15:41:43.668Z,100819.81
2018-10-02T15:44:11.528Z,100800.91
2018-10-02T15:46:39.368Z,100809.93
2018-10-02T15:49:07.220Z,100801.33
2018-10-02T15:51:39.247Z,100800.50
2018-10-02T15:54:07.337Z,100792.84
2018-10-02T15:56:35.149Z,100789.66
2018-10-02T15:59:03.012Z,100787.34
2018-10-02T16:01:30.764Z,100799.70
2018-10-02T16:03:58.706Z,100795.91
2018-10-02T16:06:26.510Z,100803.45
2018-10-02T16:08:54.348Z,100792.23
2018-10-02T16:11:22.300Z,100794.20
2018-10-02T16:13:50.049Z,100790.87
2018-10-02T16:16:17.809Z,100792.84
2018-10-02T16:18:45.587Z,100782.87
2018-10-02T16:21:13.408Z,100789.16
2018-10-02T16:23:41.244Z,100790.67
2018-10-02T16:26:09.044Z,100787.34
2018-10-02T16:28:36.868Z,100789.23
2018-10-02T16:31:04.991Z,100783.55
2018-10-02T16:33:32.779Z,100791.50
2018-10-02T16:36:00.659Z,100788.66
2018-10-02T16:38:28.560Z,100795.55
2018-10-02T16:40:56.454Z,100804.80
2018-10-02T16:43:24.178Z,100806.34
2018-10-02T16:45:51.951Z,100816.13
2018-10-02T16:48:19.819Z,100819.69
2018-10-02T16:50:47.592Z,100821.13
2018-10-02T16:53:15.349Z,100819.94
2018-10-02T16:55:46.535Z,100823.81
2018-10-02T16:58:14.325Z,100832.22
2018-10-02T17:00:42.131Z,100833.13
2018-10-02T17:03:09.915Z,100830.20
2018-10-02T17:05:37.718Z,100836.87
2018-10-02T17:08:05.584Z,100840.59
2018-10-02T17:10:33.399Z,100843.70
2018-10-02T17:13:01.171Z,100843.28
2018-10-02T17:15:28.976Z,100841.69
2018-10-02T17:17:56.895Z,100848.45
2018-10-02T17:20:24.689Z,100850.66
2018-10-02T17:22:52.583Z,100849.22
2018-10-02T17:25:20.411Z,100850.96
2018-10-02T17:27:48.203Z,100858.50
2018-10-02T17:30:16.065Z,100860.92
2018-10-02T17:32:43.931Z,100857.66
2018-10-02T17:35:11.734Z,100863.07
2018-10-02T17:37:39.495Z,100856.85
2018-10-02T17:40:07.271Z,100865.22
2018-10-02T17:42:34.987Z,100874.25
2018-10-02T17:45:02.845Z,100869.55
2018-10-02T17:47:30.619Z,100865.30
2018-10-02T17:49:58.353Z,100868.63
2018-10-02T17:52:26.201Z,100860.66
2018-10-02T17:54:54.174Z,100870.33
2018-10-02T17:57:21.973Z,100858.34
2018-10-02T17:59:49.758Z,100864.94
2018-10-02T18:02:17.543Z,100862.97
2018-10-02T18:04:45.319Z,100871.89
2018-10-02T18:07:13.087Z,100877.76
2018-10-02T18:09:40.860Z,100871.84
2018-10-02T18:12:08.840Z,100884.30
2018-10-02T18:14:36.635Z,100893.44
2018-10-02T18:17:04.464Z,100893.81
2018-10-02T18:19:32.237Z,100874.08
2018-10-02T18:22:00.069Z,100886.84
2018-10-02T18:24:27.906Z,100888.75
2018-10-02T18:26:55.694Z,100891.85
2018-10-02T18:29:23.463Z,100895.12
2018-10-02T18:31:51.313Z,100894.75
2018-10-02T18:34:19.161Z,100906.45
2018-10-02T18:36:46.956Z,100900.82
2018-10-02T18:39:14.718Z,100913.66
2018-10-02T18:41:42.564Z,100917.92
2018-10-02T18:44:10.363Z,100915.66
2018-10-02T18:46:38.152Z,100915.13
2018-10-02T18:49:06.087Z,100916.34
2018-10-02T18:51:33.851Z,100912.23
2018-10-02T18:54:01.786Z,100908.84
2018-10-02T18:56:29.745Z,100909.14
2018-10-02T18:58:57.510Z,100904.73
2018-10-02T19:01:25.303Z,100911.34
2018-10-02T19:03:53.062Z,100910.38
2018-10-02T19:06:22.544Z,100924.11
2018-10-02T19:08:56.076Z,100918.11
2018-10-02T19:11:29.793Z,100919.34
2018-10-02T19:13:57.572Z,100913.64
2018-10-02T19:16:25.664Z,100905.67
2018-10-02T19:18:53.561Z,100918.58
2018-10-02T19:21:21.287Z,100918.87
2018-10-02T19:23:49.029Z,100915.44
2018-10-02T19:26:18.643Z,100909.73
2018-10-02T19:28:46.580Z,100920.44
2018-10-02T19:31:20.126Z,100920.20
2018-10-02T19:33:48.154Z,100924.31
2018-10-02T19:36:16.172Z,100919.48
2018-10-02T19:38:53.272Z,100913.70
2018-10-02T19:41:21.047Z,100920.54
2018-10-02T19:43:48.867Z,100921.44
2018-10-02T19:46:23.924Z,100920.07
2018-10-02T19:48:51.717Z,100911.34
2018-10-02T19:51:25.357Z,100918.41
2018-10-02T19:53:53.104Z,100908.30
2018-10-02T19:56:21.194Z,100898.97
2018-10-02T19:58:49.241Z,100899.80
2018-10-02T20:01:17.027Z,100898.34
2018-10-02T20:03:44.821Z,100890.66
2018-10-02T20:06:12.636Z,100895.00
2018-10-02T20:08:40.440Z,100893.09
2018-10-02T20:11:08.172Z,100902.91
2018-10-02T20:13:36.170Z,100898.61
2018-10-02T20:16:03.844Z,100887.37
2018-10-02T20:18:31.684Z,100885.41
2018-10-02T20:20:59.535Z,100881.53
2018-10-02T20:23:27.393Z,100880.38
2018-10-02T20:25:55.147Z,100888.73
2018-10-02T20:28:22.988Z,100889.80
2018-10-02T20:30:50.776Z,100888.64
2018-10-02T20:33:18.573Z,100902.47
2018-10-02T20:35:46.323Z,100900.47
2018-10-02T20:38:14.100Z,100905.87
2018-10-02T20:40:41.811Z,100916.02
2018-10-02T20:43:09.637Z,100913.06
2018-10-02T20:45:37.439Z,100916.93
2018-10-02T20:48:05.400Z,100917.63
2018-10-02T20:50:33.239Z,100908.59
2018-10-02T20:53:01.068Z,100902.49
2018-10-02T20:55:28.868Z,100911.22
2018-10-02T20:57:56.709Z,100912.95
2018-10-02T21:00:24.444Z,100913.58
2018-10-02T21:02:52.288Z,100908.84
2018-10-02T21:05:20.130Z,100905.67
2018-10-02T21:07:47.917Z,100911.56
2018-10-02T21:10:15.736Z,100912.50
2018-10-02T21:12:43.576Z,100895.48
2018-10-02T21:15:11.522Z,100898.61
2018-10-02T21:17:39.276Z,100900.41
2018-10-02T21:20:07.446Z,100901.87
2018-10-02T21:22:35.239Z,100905.97
2018-10-02T21:25:03.195Z,100911.91
2018-10-02T21:27:31.015Z,100902.34
2018-10-02T21:29:59.032Z,100899.45
2018-10-02T21:32:26.811Z,100895.89
2018-10-02T21:34:54.628Z,100905.22
2018-10-02T21:37:22.424Z,100896.83
2018-10-02T21:39:50.304Z,100895.30
2018-10-02T21:42:18.006Z,100899.70
2018-10-02T21:44:45.796Z,100878.53
2018-10-02T21:47:13.615Z,100874.67
2018-10-02T21:49:41.446Z,100891.97
2018-10-02T21:52:09.376Z,100894.17
2018-10-02T21:54:37.189Z,100887.64
2018-10-02T21:57:05.047Z,100892.07
2018-10-02T21:59:32.858Z,100896.11
2018-10-02T22:02:00.663Z,100893.97
2018-10-02T22:04:28.443Z,100904.44
2018-10-02T22:06:56.227Z,100894.58
2018-10-02T22:09:24.020Z,100890.10
2018-10-02T22:11:51.815Z,100889.80
2018-10-02T22:14:19.635Z,100890.64
2018-10-02T22:16:47.439Z,100875.20
2018-10-02T22:19:15.277Z,100880.77
2018-10-02T22:21:43.027Z,100883.50
2018-10-02T22:24:10.965Z,100885.17
2018-10-02T22:26:38.744Z,100876.43
2018-10-02T22:29:06.551Z,100877.73
2018-10-02T22:31:34.451Z,100874.70
2018-10-02T22:34:02.187Z,100870.13
2018-10-02T22:36:30.072Z,100872.94
2018-10-02T22:38:57.900Z,100874.83
2018-10-02T22:41:25.713Z,100871.76
2018-10-02T22:43:53.547Z,100866.35
2018-10-02T22:46:21.343Z,100870.79
2018-10-02T22:48:49.126Z,100864.25
2018-10-02T22:51:16.987Z,100865.31
2018-10-02T22:53:44.832Z,100873.28
2018-10-02T22:56:12.600Z,100865.15
2018-10-02T22:58:40.346Z,100867.65
2018-10-02T23:01:08.139Z,100866.08
2018-10-02T23:03:36.003Z,100870.84
2018-10-02T23:06:03.792Z,100866.20
2018-10-02T23:08:31.711Z,100862.50
2018-10-02T23:10:59.504Z,100874.33
2018-10-02T23:13:27.219Z,100880.49
2018-10-02T23:15:55.068Z,100874.48
2018-10-02T23:18:22.878Z,100882.99
2018-10-02T23:20:50.744Z,100888.76
2018-10-02T23:23:18.567Z,100897.13
2018-10-02T23:25:46.355Z,100893.65
2018-10-02T23:28:14.176Z,100900.85
2018-10-02T23:30:42.035Z,100888.84
2018-10-02T23:33:09.840Z,100889.44
2018-10-02T23:35:37.667Z,100889.38
2018-10-02T23:38:05.520Z,100888.39
2018-10-02T23:40:33.298Z,100884.59
2018-10-02T23:43:01.051Z,100884.11
2018-10-02T23:45:28.982Z,100886.31
2018-10-02T23:47:56.783Z,100884.50
2018-10-02T23:50:24.688Z,100882.36
2018-10-02T23:52:52.540Z,100886.47
2018-10-02T23:55:20.436Z,100889.50
2018-10-02T23:57:48.151Z,100876.35
